Terminal Aerodrome Forecast
Issued by NWS

Home | Current Version | Previous Version | Text Only | Print | Product List | Glossary On
Versions: 1 2 3 4 5 6 7 8 9 10 11 12 13
568
FTUS42 KMLB 161123
TAFFPR
TAF
KFPR 161123Z 1612/1712 11007KT P6SM FEW050 BKN250
     FM161500 11011KT P6SM SCT040 SCT250
     FM170000 11005KT P6SM FEW040 SCT250
     FM170600 12005KT P6SM SCT040=

USA.gov is the U.S. government's official web portal to all federal, state and local government web resources and services.